createdAt,value
2019-03-25T00:00:11.162Z,2.57
2019-03-25T00:05:19.988Z,2.65
2019-03-25T00:10:28.838Z,2.11
2019-03-25T00:15:37.696Z,2.42
2019-03-25T00:20:46.533Z,2.35
2019-03-25T00:25:55.416Z,2.79
2019-03-25T00:31:04.634Z,2.44
2019-03-25T00:36:13.457Z,2.48
2019-03-25T00:41:22.255Z,3.05
2019-03-25T00:46:31.139Z,2.71
2019-03-25T00:51:40.058Z,2.60
2019-03-25T00:56:48.920Z,2.27
2019-03-25T01:01:57.733Z,3.09
2019-03-25T01:07:06.621Z,2.55
2019-03-25T01:12:15.471Z,3.05
2019-03-25T01:17:24.282Z,2.83
2019-03-25T01:22:33.150Z,3.46
2019-03-25T01:27:42.006Z,3.13
2019-03-25T01:32:50.904Z,3.17
2019-03-25T01:38:00.219Z,3.11
2019-03-25T01:43:09.134Z,3.39
2019-03-25T01:48:18.023Z,3.54
2019-03-25T01:53:26.851Z,2.84
2019-03-25T01:58:35.700Z,3.43
2019-03-25T02:03:44.540Z,3.26
2019-03-25T02:08:53.431Z,3.03
2019-03-25T02:14:02.311Z,3.27
2019-03-25T02:19:11.191Z,3.10
2019-03-25T02:24:20.026Z,3.13
2019-03-25T02:29:28.887Z,3.45
2019-03-25T02:34:37.763Z,3.52
2019-03-25T02:39:46.722Z,3.26
2019-03-25T02:44:55.604Z,3.48
2019-03-25T02:50:04.421Z,3.43
2019-03-25T02:55:13.343Z,3.41
2019-03-25T03:00:22.214Z,3.40
2019-03-25T03:05:31.093Z,3.19
2019-03-25T03:10:39.932Z,3.78
2019-03-25T03:15:48.859Z,3.09
2019-03-25T03:20:57.771Z,3.26
2019-03-25T03:26:06.585Z,3.27
2019-03-25T03:31:15.688Z,4.01
2019-03-25T03:36:24.502Z,3.71
2019-03-25T03:41:33.391Z,3.30
2019-03-25T03:46:44.388Z,3.42
2019-03-25T03:51:50.680Z,3.39
2019-03-25T03:56:59.519Z,3.53
2019-03-25T04:02:08.395Z,3.29
2019-03-25T04:07:17.284Z,3.59
2019-03-25T04:12:26.155Z,3.57
2019-03-25T04:17:35.017Z,3.29
2019-03-25T04:22:43.915Z,3.12
2019-03-25T04:27:52.734Z,3.30
2019-03-25T04:33:01.615Z,3.42
2019-03-25T04:38:10.487Z,3.55
2019-03-25T04:43:19.687Z,3.55
2019-03-25T04:48:28.518Z,3.50
2019-03-25T04:53:37.382Z,3.30
2019-03-25T04:58:46.223Z,3.35
2019-03-25T05:03:55.057Z,3.12
2019-03-25T05:09:03.907Z,3.18
2019-03-25T05:14:12.811Z,3.17
2019-03-25T05:19:21.686Z,2.93
2019-03-25T05:24:30.539Z,3.07
2019-03-25T05:29:39.371Z,3.18
2019-03-25T05:34:46.816Z,3.31
2019-03-25T05:39:55.622Z,3.20
2019-03-25T05:45:04.475Z,3.83
2019-03-25T05:50:13.355Z,3.42
2019-03-25T05:55:22.201Z,3.90
2019-03-25T06:00:32.383Z,3.27
2019-03-25T06:05:31.228Z,3.71
2019-03-25T06:10:40.078Z,3.91
2019-03-25T06:15:48.980Z,3.27
2019-03-25T06:20:57.799Z,3.09
2019-03-25T06:26:06.844Z,3.25
2019-03-25T06:31:15.729Z,2.94
2019-03-25T06:36:24.626Z,2.83
2019-03-25T06:41:33.908Z,2.50
2019-03-25T06:46:42.792Z,2.37
2019-03-25T06:51:51.924Z,2.45
2019-03-25T06:57:00.867Z,2.94
2019-03-25T07:02:09.787Z,3.10
2019-03-25T07:07:19.036Z,2.70
2019-03-25T07:12:28.052Z,2.73
2019-03-25T07:17:37.207Z,3.22
2019-03-25T07:22:46.358Z,3.20
2019-03-25T07:27:55.524Z,3.36
2019-03-25T07:33:05.224Z,3.13
2019-03-25T07:38:14.014Z,2.84
2019-03-25T07:43:22.874Z,3.13
2019-03-25T07:48:31.762Z,2.89
2019-03-25T07:53:40.600Z,2.89
2019-03-25T07:58:50.126Z,2.46
2019-03-25T08:03:59.010Z,2.53
2019-03-25T08:09:07.838Z,2.01
2019-03-25T08:14:16.714Z,3.45
2019-03-25T08:19:25.595Z,2.52
2019-03-25T08:24:35.950Z,3.29
2019-03-25T08:29:34.918Z,2.73
2019-03-25T08:34:43.806Z,2.67
2019-03-25T08:39:52.690Z,2.40
2019-03-25T08:45:01.587Z,2.82
2019-03-25T08:50:10.468Z,3.04
2019-03-25T08:55:19.303Z,2.40
2019-03-25T09:00:28.296Z,2.41
2019-03-25T09:05:37.150Z,2.04
2019-03-25T09:10:46.043Z,2.35
2019-03-25T09:15:54.894Z,2.45
2019-03-25T09:21:03.970Z,2.16
2019-03-25T09:26:12.879Z,1.97
2019-03-25T09:31:21.818Z,2.24
2019-03-25T09:36:30.721Z,2.41
2019-03-25T09:41:39.572Z,1.96
2019-03-25T09:46:48.447Z,1.98
2019-03-25T09:51:57.320Z,2.06
2019-03-25T09:57:06.287Z,2.15
2019-03-25T10:02:15.151Z,2.14
2019-03-25T10:07:24.168Z,2.09
2019-03-25T10:12:33.055Z,2.00
2019-03-25T10:17:41.931Z,1.87
2019-03-25T10:22:50.788Z,2.11
2019-03-25T10:27:59.667Z,1.92
2019-03-25T10:33:08.557Z,2.04
2019-03-25T10:38:19.787Z,2.20
2019-03-25T10:43:25.995Z,4.27
2019-03-25T10:48:35.007Z,2.21
2019-03-25T10:53:43.958Z,2.51
2019-03-25T10:58:58.058Z,2.03
2019-03-25T11:04:01.282Z,1.97
2019-03-25T11:09:10.133Z,1.92
2019-03-25T11:14:19.196Z,2.33
2019-03-25T11:19:28.140Z,2.08
2019-03-25T11:24:37.139Z,1.93
2019-03-25T11:29:46.028Z,1.98
2019-03-25T11:34:54.899Z,2.78
2019-03-25T11:40:04.036Z,3.57
2019-03-25T11:45:12.959Z,2.31
2019-03-25T11:50:21.799Z,2.02
2019-03-25T11:55:31.359Z,2.07
2019-03-25T12:00:40.136Z,2.17
2019-03-25T12:05:49.092Z,2.48
2019-03-25T12:10:57.963Z,1.98
2019-03-25T12:16:06.859Z,2.65
2019-03-25T12:21:15.869Z,2.66
2019-03-25T12:26:30.303Z,2.58
2019-03-25T12:31:29.119Z,2.30
2019-03-25T12:36:38.022Z,2.17
2019-03-25T12:41:46.943Z,2.22
2019-03-25T12:46:55.827Z,2.99
2019-03-25T12:52:04.695Z,2.88
2019-03-25T12:57:13.702Z,2.52
2019-03-25T13:02:22.594Z,2.41
2019-03-25T13:07:35.257Z,2.28
2019-03-25T13:12:34.055Z,2.29
2019-03-25T13:17:42.966Z,2.39
2019-03-25T13:22:51.856Z,2.58
2019-03-25T13:28:00.788Z,2.52
2019-03-25T13:33:09.897Z,2.29
2019-03-25T13:38:19.096Z,2.12
2019-03-25T13:43:28.022Z,2.28
2019-03-25T13:48:36.919Z,2.34
2019-03-25T13:53:45.790Z,2.53
2019-03-25T13:58:54.743Z,2.22
2019-03-25T14:04:03.974Z,2.38
2019-03-25T14:09:13.135Z,2.50
2019-03-25T14:14:21.994Z,2.48
2019-03-25T14:19:30.870Z,2.33
2019-03-25T14:24:39.727Z,2.43
2019-03-25T14:29:48.929Z,2.47
2019-03-25T14:34:57.804Z,2.57
2019-03-25T14:40:06.674Z,2.48
2019-03-25T14:45:25.864Z,2.04
2019-03-25T14:50:23.925Z,2.23
2019-03-25T14:55:32.891Z,2.56
2019-03-25T15:00:41.827Z,2.49
2019-03-25T15:05:50.682Z,2.64
2019-03-25T15:10:59.689Z,2.65
2019-03-25T15:16:08.049Z,2.81
2019-03-25T15:21:16.944Z,2.80
2019-03-25T15:26:25.815Z,2.52
2019-03-25T15:31:35.023Z,2.73
2019-03-25T15:36:44.257Z,3.03
2019-03-25T15:41:53.167Z,2.92
2019-03-25T15:47:02.059Z,2.33
2019-03-25T15:52:11.036Z,2.17
2019-03-25T15:57:19.888Z,3.10
2019-03-25T16:02:28.808Z,2.15
2019-03-25T16:07:37.779Z,2.32
2019-03-25T16:12:46.708Z,2.22
2019-03-25T16:17:58.234Z,2.82
2019-03-25T16:22:57.283Z,3.13
2019-03-25T16:28:06.221Z,3.04
2019-03-25T16:33:15.223Z,2.80
2019-03-25T16:38:24.143Z,2.47
2019-03-25T16:43:31.706Z,2.37
2019-03-25T16:48:40.572Z,2.04
2019-03-25T16:53:49.634Z,2.33
2019-03-25T16:58:58.558Z,2.40
2019-03-25T17:04:07.514Z,5.27
2019-03-25T17:09:16.436Z,2.43
2019-03-25T17:14:25.471Z,2.68
2019-03-25T17:19:34.394Z,2.54
2019-03-25T17:24:41.906Z,2.55
2019-03-25T17:29:50.804Z,2.52
2019-03-25T17:35:00.347Z,2.72
2019-03-25T17:40:08.324Z,2.86
2019-03-25T17:45:17.347Z,2.80
2019-03-25T17:50:26.292Z,2.44
2019-03-25T17:55:35.203Z,2.47
2019-03-25T18:00:44.095Z,2.58
2019-03-25T18:05:54.130Z,3.07
2019-03-25T18:10:52.947Z,2.79
2019-03-25T18:16:01.999Z,3.34
2019-03-25T18:21:10.845Z,3.13
2019-03-25T18:26:19.767Z,4.80
2019-03-25T18:31:28.751Z,12.76
2019-03-25T18:36:37.696Z,9.40
2019-03-25T18:41:46.618Z,20.92
2019-03-25T18:46:55.558Z,24.80
2019-03-25T18:52:04.435Z,164.07
2019-03-25T18:57:13.363Z,83.92
2019-03-25T19:02:22.218Z,57.47
2019-03-25T19:07:31.135Z,46.10
2019-03-25T19:12:40.029Z,13.08
2019-03-25T19:17:48.967Z,13.99
2019-03-25T19:22:58.013Z,11.63
2019-03-25T19:28:06.952Z,5.17
2019-03-25T19:33:15.852Z,8.27
2019-03-25T19:38:24.907Z,10.10
2019-03-25T19:43:37.099Z,8.61
2019-03-25T19:48:36.047Z,17.96
2019-03-25T19:53:44.932Z,11.34
2019-03-25T19:58:53.905Z,11.40
2019-03-25T20:04:02.784Z,8.85
2019-03-25T20:09:11.727Z,8.45
2019-03-25T20:14:20.591Z,6.18
2019-03-25T20:19:29.536Z,6.97
2019-03-25T20:24:38.412Z,5.05
2019-03-25T20:29:47.394Z,5.41
2019-03-25T20:34:56.273Z,6.48
2019-03-25T20:40:05.213Z,6.33
2019-03-25T20:45:14.066Z,7.45
2019-03-25T20:50:23.020Z,33.65
2019-03-25T20:55:31.899Z,26.48
2019-03-25T21:00:40.870Z,26.13
2019-03-25T21:05:49.738Z,23.97
2019-03-25T21:10:58.717Z,9.77
2019-03-25T21:16:07.690Z,8.03
2019-03-25T21:21:16.743Z,5.78
2019-03-25T21:26:25.663Z,7.11
2019-03-25T21:31:38.909Z,11.46
2019-03-25T21:36:44.423Z,6.36
2019-03-25T21:41:53.401Z,5.18
2019-03-25T21:47:02.236Z,4.21
2019-03-25T21:52:11.295Z,5.21
2019-03-25T21:57:20.012Z,3.64
2019-03-25T22:02:28.972Z,3.78
2019-03-25T22:07:37.880Z,3.41
2019-03-25T22:12:46.775Z,3.57
2019-03-25T22:17:55.630Z,3.50
2019-03-25T22:23:05.311Z,4.35
2019-03-25T22:28:14.169Z,6.78
2019-03-25T22:33:25.942Z,5.39
2019-03-25T22:38:31.621Z,4.99
2019-03-25T22:43:40.560Z,5.31
2019-03-25T22:48:49.458Z,5.62
2019-03-25T22:53:58.426Z,5.37
2019-03-25T22:59:07.344Z,5.56
2019-03-25T23:04:16.253Z,5.99
2019-03-25T23:09:25.168Z,4.89
2019-03-25T23:14:34.185Z,4.58
2019-03-25T23:19:43.107Z,4.78
2019-03-25T23:24:52.000Z,4.08
2019-03-25T23:30:00.929Z,3.91
2019-03-25T23:35:09.884Z,3.84
2019-03-25T23:40:18.729Z,3.78
2019-03-25T23:45:27.638Z,3.46
2019-03-25T23:50:36.569Z,3.42
2019-03-25T23:55:45.530Z,3.09
